Time;durP1;ratioP1;P1;durP2;ratioP2;P2;SDS_P1;SDS_P2;PMS_P1;PMS_P2;Temp;Humidity;BMP_temperature;BMP_pressure;BME280_temperature;BME280_humidity;BME280_pressure;Samples;Min_cycle;Max_cycle;Signal;HPM_P1;HPM_P2
2023/05/09 00:01:34;;;;;;;46.20;20.90;;;;;;;13.79;85.33;95109.50;5006938;28;20708;-78
2023/05/09 00:04:00;;;;;;;42.67;21.38;;;;;;;13.80;85.74;95113.78;4980031;28;20922;-78
2023/05/09 00:06:26;;;;;;;44.42;22.00;;;;;;;13.74;85.71;95103.28;5004709;28;20192;-78
2023/05/09 00:08:53;;;;;;;42.65;21.48;;;;;;;13.74;85.76;95098.81;5000486;28;20181;-78
2023/05/09 00:11:18;;;;;;;54.88;25.90;;;;;;;13.79;85.92;95111.34;5015385;28;20646;-78
2023/05/09 00:13:43;;;;;;;50.30;23.58;;;;;;;13.77;86.11;95111.56;5006491;28;20184;-78
2023/05/09 00:16:09;;;;;;;96.83;44.77;;;;;;;13.70;86.37;95108.22;5014049;28;20425;-78
2023/05/09 00:18:36;;;;;;;133.18;56.92;;;;;;;13.72;86.31;95119.38;5015313;28;20613;-78
2023/05/09 00:21:02;;;;;;;116.97;46.05;;;;;;;13.70;86.53;95113.50;5006632;28;20172;-79
2023/05/09 00:23:29;;;;;;;103.68;42.40;;;;;;;13.70;86.37;95110.84;5006749;28;20176;-78
2023/05/09 00:25:55;;;;;;;120.80;46.08;;;;;;;13.58;86.16;95086.97;5006841;28;20622;-79
2023/05/09 00:28:20;;;;;;;121.53;48.03;;;;;;;13.58;86.38;95094.91;5001112;28;20243;-79
2023/05/09 00:30:46;;;;;;;123.10;45.47;;;;;;;13.68;86.22;95109.44;5003401;28;20234;-79
2023/05/09 00:33:11;;;;;;;42.05;16.77;;;;;;;13.71;86.31;95101.06;5005504;28;20278;-79
2023/05/09 00:35:36;;;;;;;25.13;10.98;;;;;;;13.62;85.87;95084.72;4987200;28;20173;-78
2023/05/09 00:38:02;;;;;;;85.93;32.27;;;;;;;13.75;85.85;95104.91;5004173;28;20288;-78
2023/05/09 00:40:28;;;;;;;37.23;16.07;;;;;;;13.72;85.87;95100.88;5004012;28;20189;-78
2023/05/09 00:42:57;;;;;;;21.50;11.27;;;;;;;13.72;85.80;95100.88;5003047;28;20439;-79
2023/05/09 00:45:22;;;;;;;55.38;22.73;;;;;;;13.72;85.83;95095.56;5004243;28;20173;-79
2023/05/09 00:47:48;;;;;;;72.37;29.53;;;;;;;13.68;85.94;95088.28;5004037;28;20538;-79
2023/05/09 00:50:13;;;;;;;22.02;10.85;;;;;;;13.74;85.69;95100.66;5009781;28;20180;-79
2023/05/09 00:52:39;;;;;;;8.63;4.95;;;;;;;13.73;85.62;95096.38;5006195;28;20173;-79
2023/05/09 00:55:07;;;;;;;10.00;5.72;;;;;;;13.69;86.02;95092.56;5000194;28;20426;-79
2023/05/09 00:57:33;;;;;;;4.65;4.10;;;;;;;13.70;85.74;95100.28;5000995;28;20450;-79
2023/05/09 00:59:59;;;;;;;5.90;3.45;;;;;;;13.65;85.28;95081.63;4999786;28;20424;-78
2023/05/09 01:02:25;;;;;;;5.60;3.60;;;;;;;13.67;85.24;95084.03;5006179;28;20205;-78
2023/05/09 01:04:51;;;;;;;3.72;2.97;;;;;;;13.71;84.86;95091.31;4993457;28;20833;-78
2023/05/09 01:07:45;;;;;;;5.17;3.30;;;;;;;13.58;85.18;95092.28;4987693;28;20987;-79
2023/05/09 01:10:29;;;;;;;3.42;3.13;;;;;;;13.53;84.58;95056.94;5001107;28;20183;-78
2023/05/09 01:13:14;;;;;;;3.93;3.33;;;;;;;13.58;84.87;95072.94;5004432;28;20474;-79
2023/05/09 01:15:51;;;;;;;4.00;3.10;;;;;;;13.70;83.96;95084.41;4998448;28;20442;-79
2023/05/09 01:18:55;;;;;;;2.95;2.65;;;;;;;13.87;83.02;95097.81;5004107;28;20448;-79
2023/05/09 01:21:28;;;;;;;4.93;3.35;;;;;;;13.87;83.23;95098.63;4960388;28;20284;-79
2023/05/09 01:24:23;;;;;;;3.07;2.60;;;;;;;13.93;82.89;95096.91;5005286;28;20192;-79
2023/05/09 01:27:27;;;;;;;4.07;3.03;;;;;;;13.88;82.88;95100.22;5005421;28;20176;-79
2023/05/09 01:29:56;;;;;;;3.05;2.75;;;;;;;13.88;82.68;95094.94;5005766;28;20425;-79
2023/05/09 01:32:27;;;;;;;4.00;2.70;;;;;;;13.84;82.83;95104.34;4996730;28;20240;-79
2023/05/09 01:34:58;;;;;;;3.33;2.60;;;;;;;13.84;83.23;95104.34;4997881;28;20181;-79
2023/05/09 01:37:29;;;;;;;3.20;2.83;;;;;;;13.88;82.80;95092.28;5005672;28;20251;-79
2023/05/09 01:39:58;;;;;;;3.15;2.85;;;;;;;13.90;82.95;95094.72;4995716;28;21113;-79
2023/05/09 01:42:27;;;;;;;2.60;2.40;;;;;;;13.90;82.57;95090.22;5005125;28;20251;-79
2023/05/09 01:44:53;;;;;;;3.57;2.93;;;;;;;13.92;82.33;95096.09;4998711;28;20173;-80
2023/05/09 01:47:20;;;;;;;2.47;2.27;;;;;;;13.87;82.94;95093.31;5011839;28;20176;-79
2023/05/09 01:49:46;;;;;;;3.60;2.80;;;;;;;13.92;82.89;95095.31;4974623;28;20436;-79
2023/05/09 01:52:15;;;;;;;3.93;3.10;;;;;;;13.93;82.90;95102.19;4975390;28;20162;-79
2023/05/09 01:54:43;;;;;;;3.67;2.88;;;;;;;13.83;82.71;95081.59;4997267;28;20416;-79
2023/05/09 01:57:10;;;;;;;4.90;3.33;;;;;;;13.90;82.65;95103.47;5003807;28;20947;-79
2023/05/09 01:59:39;;;;;;;3.57;3.10;;;;;;;14.00;82.17;95102.13;5008826;28;20412;-79
2023/05/09 02:02:06;;;;;;;3.30;2.88;;;;;;;13.98;82.21;95108.44;5000495;28;20176;-79
2023/05/09 02:04:32;;;;;;;2.53;2.33;;;;;;;13.65;82.22;95065.75;4996413;28;20895;-79
2023/05/09 02:06:59;;;;;;;5.20;3.70;;;;;;;13.75;82.33;95092.47;4992761;28;20414;-79
2023/05/09 02:09:25;;;;;;;4.78;3.42;;;;;;;13.86;83.07;95107.56;5007261;28;20466;-78
2023/05/09 02:11:50;;;;;;;3.90;3.07;;;;;;;13.90;82.46;95111.41;4998059;28;20632;-78
2023/05/09 02:14:16;;;;;;;4.13;3.10;;;;;;;13.96;82.25;95105.19;5010838;28;20918;-78
2023/05/09 02:16:41;;;;;;;4.00;3.60;;;;;;;13.94;81.98;95099.31;5000216;28;21030;-78
2023/05/09 02:19:07;;;;;;;3.87;2.90;;;;;;;13.96;81.74;95107.03;5002391;28;20256;-78
2023/05/09 02:21:33;;;;;;;3.83;2.87;;;;;;;13.84;81.80;95075.22;5008573;28;20456;-78
2023/05/09 02:23:59;;;;;;;3.72;3.42;;;;;;;13.95;81.84;95090.34;5002900;28;20477;-78
2023/05/09 02:26:25;;;;;;;3.63;3.30;;;;;;;13.83;81.97;95092.16;5009154;28;20507;-78
2023/05/09 02:28:51;;;;;;;4.28;3.20;;;;;;;13.86;81.87;95088.25;5001944;28;20412;-78
2023/05/09 02:31:19;;;;;;;3.45;3.15;;;;;;;13.92;82.80;95108.53;4992339;28;20432;-78
2023/05/09 02:33:46;;;;;;;4.72;2.83;;;;;;;13.94;81.87;95095.88;5002094;28;20188;-78
2023/05/09 02:36:13;;;;;;;3.58;3.28;;;;;;;14.00;81.70;95091.53;4992899;28;20424;-78
2023/05/09 02:38:40;;;;;;;4.53;3.05;;;;;;;14.08;81.33;95109.72;5002283;28;20185;-78
2023/05/09 02:41:06;;;;;;;3.30;3.00;;;;;;;14.07;81.47;95102.81;5002261;28;20188;-79
2023/05/09 02:43:31;;;;;;;4.47;3.23;;;;;;;14.04;81.50;95101.44;5001550;28;20800;-78
2023/05/09 02:45:57;;;;;;;4.43;3.15;;;;;;;13.97;81.79;95093.59;5000923;28;20793;-78
2023/05/09 02:48:22;;;;;;;4.20;3.37;;;;;;;14.02;81.36;95098.19;5007305;28;20422;-78
2023/05/09 02:50:47;;;;;;;4.83;3.20;;;;;;;13.99;81.50;95098.66;5011501;28;20926;-78
2023/05/09 02:53:13;;;;;;;5.80;3.15;;;;;;;13.90;81.50;95092.06;5002007;28;20292;-78
2023/05/09 02:55:38;;;;;;;4.35;3.67;;;;;;;13.94;82.09;95099.31;4984023;28;20204;-78
2023/05/09 02:58:04;;;;;;;3.80;3.40;;;;;;;13.95;82.11;95108.88;5000825;28;20427;-78
2023/05/09 03:00:29;;;;;;;3.67;2.70;;;;;;;13.92;81.66;95106.66;5001811;28;20606;-78
2023/05/09 03:02:54;;;;;;;4.10;3.03;;;;;;;13.80;82.02;95089.97;4993367;28;20173;-78
2023/05/09 03:05:20;;;;;;;4.10;3.10;;;;;;;13.77;82.22;95095.69;5001777;28;20177;-78
2023/05/09 03:07:46;;;;;;;3.90;2.77;;;;;;;13.79;82.48;95103.41;4999636;28;20259;-79
2023/05/09 03:10:11;;;;;;;3.70;3.10;;;;;;;13.77;82.62;95108.91;5003327;28;20501;-78
2023/05/09 03:12:37;;;;;;;4.10;2.90;;;;;;;13.78;82.82;95115.03;5001367;28;20185;-78
2023/05/09 03:15:05;;;;;;;4.27;3.03;;;;;;;13.73;83.17;95110.41;4997107;28;20184;-78
2023/05/09 03:17:31;;;;;;;3.83;3.00;;;;;;;13.74;83.16;95114.69;5000345;28;20423;-78
2023/05/09 03:19:56;;;;;;;10.50;4.10;;;;;;;13.52;83.45;95093.16;5001548;28;20196;-78
2023/05/09 03:22:22;;;;;;;4.53;3.53;;;;;;;13.67;83.68;95123.72;5003088;28;20180;-78
2023/05/09 03:24:47;;;;;;;4.43;3.92;;;;;;;13.67;83.91;95140.38;4995739;28;20482;-80
2023/05/09 03:27:12;;;;;;;4.35;3.67;;;;;;;13.55;84.20;95126.31;5006163;28;20204;-78
2023/05/09 03:29:38;;;;;;;6.53;4.40;;;;;;;13.72;84.17;95145.03;4984680;28;20181;-77
2023/05/09 03:32:04;;;;;;;5.63;4.00;;;;;;;13.67;84.10;95139.59;5006519;28;20513;-77
2023/05/09 03:34:29;;;;;;;6.68;4.28;;;;;;;13.68;84.97;95143.84;5000577;28;20412;-79
2023/05/09 03:36:54;;;;;;;7.30;3.70;;;;;;;13.66;85.12;95138.00;4998710;28;20692;-78
2023/05/09 03:39:20;;;;;;;6.80;4.50;;;;;;;13.62;85.10;95119.09;4999360;28;20983;-82
2023/05/09 03:41:45;;;;;;;5.67;4.33;;;;;;;13.78;85.06;95147.59;5000723;28;20595;-80
2023/05/09 03:44:11;;;;;;;5.13;4.47;;;;;;;13.66;85.61;95130.88;4999554;28;20913;-80
2023/05/09 03:46:36;;;;;;;6.17;4.47;;;;;;;13.69;86.30;95143.63;4994874;28;20430;-78
2023/05/09 03:49:03;;;;;;;7.30;4.90;;;;;;;13.74;86.30;95150.91;4991111;28;20449;-78
2023/05/09 03:51:29;;;;;;;6.53;4.60;;;;;;;13.76;85.71;95138.25;4997221;28;20431;-78
2023/05/09 03:53:55;;;;;;;6.00;4.07;;;;;;;13.86;85.23;95152.56;5005018;28;20426;-78
2023/05/09 03:56:21;;;;;;;5.93;4.60;;;;;;;13.87;84.88;95154.19;5002353;28;20483;-78
2023/05/09 03:58:46;;;;;;;6.50;4.13;;;;;;;13.87;84.29;95145.44;5003234;28;20416;-79
2023/05/09 04:01:12;;;;;;;5.43;4.33;;;;;;;13.43;84.94;95128.88;5008145;28;20855;-79
2023/05/09 04:03:37;;;;;;;4.40;3.63;;;;;;;13.58;85.49;95153.13;4998480;28;20527;-79
2023/05/09 04:06:04;;;;;;;6.37;4.70;;;;;;;13.31;85.76;95121.94;4986387;28;20434;-80
2023/05/09 04:08:30;;;;;;;7.27;4.40;;;;;;;13.07;86.97;95119.09;5002071;28;20447;-80
2023/05/09 04:10:56;;;;;;;6.00;4.00;;;;;;;13.32;86.79;95148.13;5001639;28;20442;-80
2023/05/09 04:13:21;;;;;;;3.87;3.40;;;;;;;13.41;86.62;95153.94;4997489;28;20284;-81
2023/05/09 04:15:46;;;;;;;5.10;4.10;;;;;;;13.42;86.37;95158.19;5000760;28;20209;-81
2023/05/09 04:18:12;;;;;;;4.33;3.60;;;;;;;13.19;86.59;95137.72;5004232;28;20201;-84
2023/05/09 04:20:37;;;;;;;5.63;3.27;;;;;;;13.30;87.02;95159.97;5004946;28;20183;-81
2023/05/09 04:23:02;;;;;;;3.90;3.00;;;;;;;13.09;86.80;95130.25;4999310;28;20216;-82
2023/05/09 04:25:29;;;;;;;4.20;2.93;;;;;;;13.37;86.78;95144.84;5000214;28;20164;-82
2023/05/09 04:27:55;;;;;;;6.30;3.47;;;;;;;13.53;86.93;95163.56;5000366;28;20177;-81
2023/05/09 04:30:21;;;;;;;5.10;3.13;;;;;;;13.56;85.46;95135.88;5003350;28;20188;-82
2023/05/09 04:32:47;;;;;;;6.33;3.67;;;;;;;13.73;85.59;95160.69;4992158;28;20188;-80
2023/05/09 04:35:13;;;;;;;7.73;3.50;;;;;;;13.76;85.05;95154.94;5005503;28;20168;-79
2023/05/09 04:37:38;;;;;;;5.20;3.43;;;;;;;13.83;84.77;95160.16;5005613;28;20197;-79
2023/05/09 04:40:04;;;;;;;4.93;3.60;;;;;;;13.93;84.51;95166.50;5015233;28;20168;-81
2023/05/09 04:42:33;;;;;;;4.50;3.73;;;;;;;13.99;83.25;95156.91;5014979;28;20291;-82
2023/05/09 04:44:59;;;;;;;7.10;3.40;;;;;;;13.90;83.65;95166.19;5005893;28;20185;-81
2023/05/09 04:47:25;;;;;;;5.03;3.70;;;;;;;13.81;84.31;95154.28;4979357;28;20177;-80
2023/05/09 04:49:51;;;;;;;6.67;4.00;;;;;;;13.92;84.61;95175.47;5006539;28;20568;-80
2023/05/09 04:52:16;;;;;;;5.87;4.20;;;;;;;13.89;84.52;95160.06;4988320;28;20247;-81
2023/05/09 04:54:42;;;;;;;6.83;4.33;;;;;;;14.01;84.59;95165.41;4999262;28;20177;-80
2023/05/09 04:57:07;;;;;;;6.30;4.30;;;;;;;13.90;84.95;95148.47;5008412;28;20719;-82
2023/05/09 04:59:33;;;;;;;5.33;4.30;;;;;;;13.90;84.70;95150.28;5004608;28;20181;-82
2023/05/09 05:01:59;;;;;;;6.80;4.20;;;;;;;14.07;84.79;95166.34;5001767;28;20184;-82
2023/05/09 05:04:24;;;;;;;5.30;4.20;;;;;;;14.05;84.22;95153.34;5003588;28;20188;-80
2023/05/09 05:06:49;;;;;;;8.50;4.63;;;;;;;13.91;83.77;95130.75;5005783;28;20261;-82
2023/05/09 05:09:15;;;;;;;5.03;4.07;;;;;;;14.17;83.86;95162.16;5005762;28;20168;-83
2023/05/09 05:11:41;;;;;;;7.33;5.20;;;;;;;14.25;83.89;95153.06;5005709;28;20169;-82
2023/05/09 05:14:06;;;;;;;5.97;4.23;;;;;;;14.12;83.35;95129.41;5005129;28;20196;-82
2023/05/09 05:16:31;;;;;;;6.97;3.87;;;;;;;14.46;82.76;95171.09;4997334;28;20173;-81
2023/05/09 05:18:57;;;;;;;7.43;3.93;;;;;;;14.50;82.33;95156.38;5005355;28;20191;-80
2023/05/09 05:21:22;;;;;;;5.73;3.00;;;;;;;14.57;81.51;95165.03;4989631;28;20212;-81
2023/05/09 05:23:48;;;;;;;5.67;3.13;;;;;;;14.48;80.46;95153.16;5010211;28;20184;-80
2023/05/09 05:26:13;;;;;;;4.80;3.37;;;;;;;14.40;81.19;95169.38;5004514;28;21620;-80
2023/05/09 05:28:38;;;;;;;2.50;2.30;;;;;;;14.31;81.01;95173.34;5009700;28;20233;-80
2023/05/09 05:31:04;;;;;;;4.00;2.67;;;;;;;14.17;81.32;95172.75;5003271;28;20189;-80
2023/05/09 05:33:29;;;;;;;3.40;2.70;;;;;;;13.95;81.52;95148.59;5007900;28;20179;-80
2023/05/09 05:35:55;;;;;;;3.00;2.50;;;;;;;14.09;81.01;95180.19;4998830;28;21729;-79
2023/05/09 05:38:20;;;;;;;3.13;2.20;;;;;;;14.13;81.33;95182.16;5000875;28;20591;-80
2023/05/09 05:40:46;;;;;;;2.33;2.13;;;;;;;14.35;81.82;95166.56;4998246;28;20539;-80
2023/05/09 05:43:11;;;;;;;2.83;2.23;;;;;;;14.68;79.53;95168.75;5003102;28;20236;-80
2023/05/09 05:45:36;;;;;;;2.93;2.07;;;;;;;14.67;77.05;95164.47;5013843;28;20173;-80
2023/05/09 05:48:02;;;;;;;1.63;1.53;;;;;;;14.79;76.56;95175.09;5005252;28;20168;-79
2023/05/09 05:50:27;;;;;;;4.63;1.93;;;;;;;14.93;76.50;95192.41;5011362;28;20188;-80
2023/05/09 05:52:53;;;;;;;2.00;1.80;;;;;;;15.06;75.81;95177.06;5003014;28;20184;-80
2023/05/09 05:55:18;;;;;;;3.60;2.17;;;;;;;15.05;75.74;95186.06;4980293;28;20196;-79
2023/05/09 05:57:44;;;;;;;2.23;1.87;;;;;;;14.95;75.74;95185.03;4998119;28;20202;-79
2023/05/09 06:00:10;;;;;;;1.63;1.53;;;;;;;15.05;75.11;95172.78;5002443;28;20666;-79
2023/05/09 06:02:36;;;;;;;1.80;1.70;;;;;;;15.20;74.14;95198.88;5002401;28;20188;-79
2023/05/09 06:05:02;;;;;;;3.70;2.30;;;;;;;14.89;74.59;95185.94;5002508;28;20566;-80
2023/05/09 06:07:28;;;;;;;2.93;2.00;;;;;;;14.72;75.51;95170.69;4993717;28;20153;-79
2023/05/09 06:09:53;;;;;;;2.40;1.80;;;;;;;14.92;74.54;95185.47;4993655;28;20170;-80
2023/05/09 06:12:19;;;;;;;1.70;1.60;;;;;;;15.07;75.26;95180.53;4993517;28;20184;-80
2023/05/09 06:14:44;;;;;;;2.03;1.70;;;;;;;15.03;73.79;95144.91;5002568;28;20188;-79
2023/05/09 06:17:10;;;;;;;2.83;1.90;;;;;;;15.05;72.73;95172.78;5004867;28;20203;-79
2023/05/09 06:19:36;;;;;;;1.98;1.65;;;;;;;15.10;71.24;95182.72;4999656;28;20656;-79
2023/05/09 06:22:02;;;;;;;4.30;1.67;;;;;;;15.29;71.89;95172.81;5008807;28;20200;-79
2023/05/09 06:24:27;;;;;;;2.80;1.87;;;;;;;15.65;69.68;95164.59;4980770;28;20258;-79
2023/05/09 06:26:52;;;;;;;1.60;1.50;;;;;;;15.63;68.73;95187.09;5004896;28;20175;-80
2023/05/09 06:29:18;;;;;;;1.63;1.50;;;;;;;15.96;69.05;95183.78;5012956;28;20176;-80
2023/05/09 06:31:43;;;;;;;1.60;1.50;;;;;;;16.36;67.35;95195.16;5000234;28;20218;-80
2023/05/09 06:34:09;;;;;;;1.70;1.60;;;;;;;16.73;67.71;95166.34;4997173;28;20193;-80
2023/05/09 06:36:34;;;;;;;2.38;1.67;;;;;;;17.75;63.87;95194.47;4998007;28;20187;-80
2023/05/09 06:39:00;;;;;;;2.03;1.48;;;;;;;18.35;61.68;95195.19;5003058;28;20172;-80
2023/05/09 06:41:25;;;;;;;3.15;1.40;;;;;;;18.74;59.78;95200.41;5007626;28;20186;-80
2023/05/09 06:43:51;;;;;;;1.42;1.33;;;;;;;18.20;60.83;95176.38;5000065;28;20230;-80
2023/05/09 06:46:17;;;;;;;1.73;1.58;;;;;;;18.04;62.12;95194.03;5003306;28;20181;-80
2023/05/09 06:48:43;;;;;;;2.00;1.50;;;;;;;17.13;63.96;95194.63;4998111;28;20177;-79
2023/05/09 06:51:08;;;;;;;1.95;1.40;;;;;;;16.97;65.11;95191.72;5008960;28;20176;-80
2023/05/09 06:53:34;;;;;;;1.60;1.50;;;;;;;17.19;66.01;95185.69;4998358;28;20168;-80
2023/05/09 06:55:59;;;;;;;1.95;1.50;;;;;;;17.11;63.59;95167.47;5000383;28;20279;-80
2023/05/09 06:58:26;;;;;;;5.07;1.90;;;;;;;17.29;63.77;95177.84;4989654;28;20212;-80
2023/05/09 07:00:52;;;;;;;1.83;1.60;;;;;;;16.65;65.66;95187.19;5006082;28;20288;-80
2023/05/09 07:03:17;;;;;;;1.67;1.40;;;;;;;16.71;65.49;95189.69;4999044;28;20240;-79
2023/05/09 07:05:43;;;;;;;1.42;1.33;;;;;;;16.33;65.30;95182.38;4997418;28;20180;-80
2023/05/09 07:08:08;;;;;;;1.58;1.23;;;;;;;15.76;67.98;95189.47;4997504;28;20169;-80
2023/05/09 07:10:33;;;;;;;4.73;1.97;;;;;;;15.66;69.68;95174.16;5002557;28;20184;-80
2023/05/09 07:12:59;;;;;;;2.95;1.80;;;;;;;15.92;68.96;95179.97;4998591;28;20173;-79
2023/05/09 07:15:24;;;;;;;2.10;1.58;;;;;;;16.07;67.86;95167.81;5000461;28;20235;-79
2023/05/09 07:17:51;;;;;;;1.65;1.45;;;;;;;15.62;69.00;95172.22;5007312;28;20200;-80
2023/05/09 07:20:17;;;;;;;4.30;1.60;;;;;;;15.55;69.51;95174.19;5007317;28;20176;-80
2023/05/09 07:22:42;;;;;;;1.70;1.48;;;;;;;16.10;69.25;95172.63;5003307;28;20183;-80
2023/05/09 07:25:08;;;;;;;3.13;1.65;;;;;;;15.99;67.54;95184.13;5003550;28;20180;-81
2023/05/09 07:27:35;;;;;;;2.65;1.98;;;;;;;16.15;67.64;95180.72;5003328;28;20178;-80
2023/05/09 07:30:01;;;;;;;2.50;1.30;;;;;;;16.11;67.75;95178.75;5003229;28;20255;-80
2023/05/09 07:32:27;;;;;;;1.65;1.48;;;;;;;16.00;67.86;95182.28;4994735;28;20316;-80
2023/05/09 07:34:53;;;;;;;1.63;1.52;;;;;;;15.81;68.13;95157.75;5003181;28;20173;-80
2023/05/09 07:37:19;;;;;;;2.00;1.48;;;;;;;15.65;67.80;95163.78;5006409;28;20219;-80
2023/05/09 07:39:46;;;;;;;1.52;1.42;;;;;;;15.49;69.01;95176.69;4992477;28;20217;-80
2023/05/09 07:42:12;;;;;;;1.50;1.40;;;;;;;15.51;70.13;95175.66;5002911;28;20227;-80
2023/05/09 07:44:37;;;;;;;1.50;1.40;;;;;;;15.36;68.89;95161.03;4999090;28;21046;-80
2023/05/09 07:47:04;;;;;;;1.70;1.60;;;;;;;15.60;68.69;95188.38;4992236;28;20546;-80
2023/05/09 07:49:30;;;;;;;1.60;1.50;;;;;;;15.47;68.44;95173.47;5000974;28;20546;-80
2023/05/09 07:51:55;;;;;;;1.60;1.50;;;;;;;15.48;69.34;95185.69;4994679;28;20176;-80
2023/05/09 07:54:20;;;;;;;2.45;1.50;;;;;;;15.38;68.82;95176.72;5012402;28;20157;-80
2023/05/09 07:56:46;;;;;;;1.77;1.40;;;;;;;15.40;69.88;95178.09;5011774;28;20201;-80
2023/05/09 07:59:11;;;;;;;6.50;2.20;;;;;;;15.38;70.75;95176.72;4994470;28;20206;-80
2023/05/09 08:01:37;;;;;;;5.47;1.67;;;;;;;15.46;69.63;95157.78;4983364;28;20258;-80
2023/05/09 08:04:05;;;;;;;1.60;1.50;;;;;;;15.61;69.35;95154.66;4993171;28;20177;-80
2023/05/09 08:06:31;;;;;;;1.30;1.20;;;;;;;15.78;67.78;95177.59;5007164;28;20169;-79
2023/05/09 08:08:56;;;;;;;1.85;1.50;;;;;;;15.87;68.22;95172.72;5005264;28;20264;-80
2023/05/09 08:11:22;;;;;;;2.10;1.50;;;;;;;15.99;69.41;95154.09;5006568;28;20189;-80
2023/05/09 08:13:47;;;;;;;2.00;1.40;;;;;;;16.35;66.49;95182.91;4989031;28;20184;-79
2023/05/09 08:16:13;;;;;;;1.55;1.40;;;;;;;16.19;66.39;95171.22;5006779;28;20228;-79
2023/05/09 08:18:38;;;;;;;1.20;1.10;;;;;;;16.32;67.27;95186.06;5004657;28;20195;-80
2023/05/09 08:21:04;;;;;;;1.38;1.27;;;;;;;16.32;66.20;95156.03;4997646;28;20183;-80
2023/05/09 08:23:29;;;;;;;1.75;1.15;;;;;;;16.65;66.19;95189.84;5004293;28;20633;-80
2023/05/09 08:25:55;;;;;;;1.83;1.35;;;;;;;16.53;65.73;95184.56;5004472;28;20180;-81
2023/05/09 08:28:23;;;;;;;1.40;1.30;;;;;;;16.47;66.15;95193.50;5004180;28;20187;-81
2023/05/09 08:30:50;;;;;;;1.92;1.50;;;;;;;16.38;67.27;95163.03;5004120;28;20173;-80
2023/05/09 08:33:15;;;;;;;3.72;1.45;;;;;;;16.36;65.95;95181.06;5004150;28;20165;-80
2023/05/09 08:35:41;;;;;;;1.40;1.30;;;;;;;16.71;66.48;95181.72;4995547;28;20715;-81
2023/05/09 08:38:06;;;;;;;1.20;1.10;;;;;;;16.75;65.26;95174.88;4995453;28;20212;-80
2023/05/09 08:40:36;;;;;;;1.25;1.15;;;;;;;16.93;63.78;95172.00;4995274;28;20168;-80
2023/05/09 08:43:04;;;;;;;1.50;1.38;;;;;;;17.09;63.66;95161.59;5004174;28;20299;-81
2023/05/09 08:45:34;;;;;;;2.00;1.30;;;;;;;17.53;62.44;95186.44;5004373;28;20176;-81
2023/05/09 08:48:05;;;;;;;2.80;1.30;;;;;;;17.24;62.85;95193.72;5004061;28;20161;-81
2023/05/09 08:50:31;;;;;;;1.88;1.10;;;;;;;16.62;65.05;95177.03;5009872;28;20192;-81
2023/05/09 08:52:57;;;;;;;2.13;1.30;;;;;;;16.65;66.02;95182.69;5004472;28;20193;-82
2023/05/09 08:55:23;;;;;;;2.33;1.10;;;;;;;16.13;66.79;95153.56;4995056;28;20227;-83
2023/05/09 08:57:51;;;;;;;0.95;0.95;;;;;;;15.98;67.73;95176.38;5003616;28;20197;-81
2023/05/09 09:00:19;;;;;;;2.83;1.10;;;;;;;15.83;67.65;95172.38;5003756;28;20173;-80
2023/05/09 09:02:45;;;;;;;1.08;0.90;;;;;;;15.66;67.40;95170.69;5003801;28;20304;-81
2023/05/09 09:05:10;;;;;;;0.80;0.80;;;;;;;15.51;67.44;95159.72;5003846;28;20268;-81
2023/05/09 09:07:37;;;;;;;1.10;1.00;;;;;;;15.36;67.08;95139.00;5003506;28;20565;-83
2023/05/09 09:10:03;;;;;;;1.37;1.00;;;;;;;15.61;67.15;95171.41;5010887;28;20655;-82
2023/05/09 09:12:30;;;;;;;0.83;0.83;;;;;;;15.75;68.11;95172.75;5004690;28;20269;-82
2023/05/09 09:15:02;;;;;;;1.10;1.00;;;;;;;15.64;67.76;95175.44;4994367;28;20204;-82
2023/05/09 09:17:29;;;;;;;2.13;1.00;;;;;;;15.55;67.57;95153.78;4976863;28;20193;-83
2023/05/09 09:20:00;;;;;;;2.93;1.10;;;;;;;15.61;68.57;95168.75;4994706;28;20621;-79
2023/05/09 09:22:33;;;;;;;2.38;0.93;;;;;;;15.56;67.83;95170.50;4994598;28;20157;-82
2023/05/09 09:25:00;;;;;;;0.85;0.85;;;;;;;15.45;68.04;95164.94;4994480;28;20715;-83
2023/05/09 09:27:26;;;;;;;2.53;0.82;;;;;;;15.26;68.06;95142.25;4994609;28;20208;-81
2023/05/09 09:29:51;;;;;;;2.70;1.10;;;;;;;15.12;68.71;95142.72;4995331;28;20188;-83
2023/05/09 09:32:18;;;;;;;1.67;1.00;;;;;;;15.39;68.86;95173.81;4999180;28;20188;-81
2023/05/09 09:34:48;;;;;;;0.80;0.80;;;;;;;15.06;68.67;95145.25;5005359;28;20172;-81
2023/05/09 09:37:22;;;;;;;1.83;1.07;;;;;;;15.25;68.52;95171.63;5004378;28;20209;-80
2023/05/09 09:39:55;;;;;;;3.30;0.97;;;;;;;15.10;68.52;95166.81;5003095;28;20200;-81
2023/05/09 09:42:22;;;;;;;1.67;1.00;;;;;;;15.16;68.96;95171.19;5002810;28;20224;-80
2023/05/09 09:45:08;;;;;;;0.90;0.90;;;;;;;15.22;69.06;95164.94;5013399;28;20226;-81
2023/05/09 09:47:33;;;;;;;1.00;0.73;;;;;;;15.21;67.97;95176.63;5000592;28;20648;-79
2023/05/09 09:50:09;;;;;;;1.80;0.83;;;;;;;15.22;68.35;95175.56;5002692;28;20180;-80
2023/05/09 09:52:35;;;;;;;1.83;0.80;;;;;;;15.18;67.87;95161.16;4988773;28;20196;-80
2023/05/09 09:55:00;;;;;;;6.17;1.63;;;;;;;15.16;68.55;95168.53;4998843;28;20211;-80
2023/05/09 09:57:34;;;;;;;1.03;0.97;;;;;;;15.19;68.91;95169.94;5001372;28;20698;-80
2023/05/09 09:59:59;;;;;;;1.27;1.17;;;;;;;15.18;68.95;95165.66;4994161;28;20177;-80
2023/05/09 10:02:25;;;;;;;2.50;1.50;;;;;;;15.14;69.44;95165.31;4988810;28;20683;-80
2023/05/09 10:04:51;;;;;;;2.93;1.67;;;;;;;15.34;70.34;95172.91;5004536;28;20168;-80
2023/05/09 10:07:22;;;;;;;1.47;1.33;;;;;;;15.28;69.15;95174.66;5004294;28;20539;-80
2023/05/09 10:09:48;;;;;;;3.33;1.30;;;;;;;15.28;70.03;95166.69;5002419;28;20280;-82
2023/05/09 10:12:18;;;;;;;1.37;1.27;;;;;;;15.21;69.98;95147.44;4984704;28;20187;-82
2023/05/09 10:14:44;;;;;;;2.70;1.40;;;;;;;15.20;69.72;95161.75;5010615;28;20550;-80
2023/05/09 10:17:13;;;;;;;1.90;1.37;;;;;;;15.34;70.26;95152.50;5004138;28;20203;-81
2023/05/09 10:19:43;;;;;;;1.30;1.20;;;;;;;15.46;70.06;95152.50;5003819;28;20676;-81
2023/05/09 10:22:10;;;;;;;1.40;1.30;;;;;;;15.59;69.69;95151.44;5005321;28;20196;-80
2023/05/09 10:24:46;;;;;;;1.73;1.37;;;;;;;15.57;69.31;95134.97;4985396;28;20622;-80
2023/05/09 10:27:13;;;;;;;1.40;1.30;;;;;;;15.70;69.23;95132.84;5012362;28;20651;-80
2023/05/09 10:30:01;;;;;;;1.30;1.20;;;;;;;15.66;68.17;95141.50;5012822;28;20580;-81
2023/05/09 10:32:49;;;;;;;1.60;1.50;;;;;;;15.24;70.75;95144.31;5005688;28;20168;-80
2023/05/09 10:35:16;;;;;;;1.63;1.53;;;;;;;15.07;72.06;95136.25;5002226;28;20197;-81
2023/05/09 10:37:43;;;;;;;3.25;1.65;;;;;;;15.26;72.91;95136.94;5006284;28;20197;-81
2023/05/09 10:40:14;;;;;;;1.43;1.33;;;;;;;15.40;70.91;95138.28;5005849;28;20226;-79
2023/05/09 10:42:43;;;;;;;1.50;1.40;;;;;;;15.34;70.63;95125.97;4992749;28;20220;-80
2023/05/09 10:45:12;;;;;;;1.50;1.40;;;;;;;15.08;71.63;95073.41;4993289;28;20632;-80
2023/05/09 10:47:39;;;;;;;1.52;1.42;;;;;;;15.34;71.33;95125.97;4992873;28;20549;-79
2023/05/09 10:50:09;;;;;;;1.52;1.42;;;;;;;15.31;71.67;95133.56;4979546;28;20232;-81
2023/05/09 10:53:05;;;;;;;1.92;1.65;;;;;;;15.53;71.54;95133.78;4992792;28;20188;-79
2023/05/09 10:55:54;;;;;;;1.93;1.20;;;;;;;15.50;70.05;95150.97;4995008;28;20672;-81
2023/05/09 10:58:28;;;;;;;1.93;1.73;;;;;;;15.43;70.29;95129.88;4990230;28;20579;-79
2023/05/09 11:00:56;;;;;;;3.83;1.73;;;;;;;15.37;70.37;95154.69;4989062;28;20622;-79
2023/05/09 11:03:23;;;;;;;1.57;1.47;;;;;;;15.18;70.67;95153.19;4995949;28;20186;-79
2023/05/09 11:05:51;;;;;;;2.80;1.60;;;;;;;14.91;71.41;95126.34;4991959;28;20201;-79
2023/05/09 11:08:18;;;;;;;3.57;1.83;;;;;;;15.29;70.98;95141.78;5000883;28;20161;-80
2023/05/09 11:10:43;;;;;;;4.53;2.07;;;;;;;15.42;71.08;95144.19;5000746;28;20169;-80
2023/05/09 11:13:09;;;;;;;12.43;3.43;;;;;;;15.42;71.26;95125.59;5012166;28;20250;-80
2023/05/09 11:15:48;;;;;;;2.47;2.27;;;;;;;15.71;70.80;95150.38;4999200;28;20169;-79
2023/05/09 11:18:14;;;;;;;3.03;2.00;;;;;;;15.47;69.48;95112.47;5000732;28;20287;-80
2023/05/09 11:20:43;;;;;;;1.67;1.57;;;;;;;15.55;69.92;95137.03;5001365;28;20259;-79
2023/05/09 11:23:10;;;;;;;2.17;1.93;;;;;;;15.40;70.44;95140.94;4992934;28;20165;-81
2023/05/09 11:25:38;;;;;;;3.90;2.20;;;;;;;15.48;71.06;95119.34;4975226;28;20172;-80
2023/05/09 11:28:03;;;;;;;1.80;1.70;;;;;;;15.59;69.56;95124.91;4992684;28;20169;-83
2023/05/09 11:30:39;;;;;;;2.60;2.20;;;;;;;15.79;70.45;95151.84;4997819;28;20233;-82
2023/05/09 11:33:05;;;;;;;2.37;2.00;;;;;;;15.73;69.52;95150.16;5002758;28;20172;-80